createdAt,value
2017-08-24T00:00:38.635Z,60.11
2017-08-24T00:03:07.687Z,59.71
2017-08-24T00:05:36.748Z,59.46
2017-08-24T00:08:05.817Z,59.28
2017-08-24T00:10:34.874Z,59.60
2017-08-24T00:13:03.952Z,59.92
2017-08-24T00:15:33.000Z,60.27
2017-08-24T00:18:02.095Z,60.87
2017-08-24T00:20:31.512Z,60.98
2017-08-24T00:23:00.883Z,61.81
2017-08-24T00:25:29.911Z,62.42
2017-08-24T00:27:58.999Z,62.56
2017-08-24T00:30:43.295Z,63.34
2017-08-24T00:33:13.459Z,63.81
2017-08-24T00:35:42.519Z,64.65
2017-08-24T00:38:11.601Z,65.34
2017-08-24T00:40:40.678Z,67.81
2017-08-24T00:43:09.786Z,69.01
2017-08-24T00:45:38.864Z,69.58
2017-08-24T00:48:08.172Z,69.94
2017-08-24T00:50:37.232Z,70.57
2017-08-24T00:53:06.364Z,70.54
2017-08-24T00:55:35.447Z,70.67
2017-08-24T00:58:04.503Z,70.98
2017-08-24T01:00:33.575Z,71.33
2017-08-24T01:03:02.856Z,71.48
2017-08-24T01:05:31.932Z,72.51
2017-08-24T01:08:01.004Z,72.89
2017-08-24T01:10:30.312Z,74.12
2017-08-24T01:12:59.382Z,74.54
2017-08-24T01:15:28.461Z,75.22
2017-08-24T01:17:57.519Z,75.49
2017-08-24T01:20:26.622Z,75.56
2017-08-24T01:22:55.669Z,75.90
2017-08-24T01:25:24.736Z,75.77
2017-08-24T01:27:53.815Z,75.80
2017-08-24T01:30:23.208Z,75.76
2017-08-24T01:32:52.279Z,75.82
2017-08-24T01:35:21.346Z,75.93
2017-08-24T01:37:50.413Z,75.93
2017-08-24T01:40:19.568Z,76.40
2017-08-24T01:42:48.640Z,76.15
2017-08-24T01:45:17.717Z,76.33
2017-08-24T01:47:46.865Z,76.49
2017-08-24T01:50:15.937Z,76.06
2017-08-24T01:52:45.016Z,75.85
2017-08-24T01:55:14.143Z,76.26
2017-08-24T01:57:43.222Z,76.34
2017-08-24T02:00:12.265Z,76.10
2017-08-24T02:02:41.356Z,76.03
2017-08-24T02:05:10.746Z,75.75
2017-08-24T02:07:39.796Z,75.47
2017-08-24T02:10:09.537Z,75.45
2017-08-24T02:12:38.595Z,75.26
2017-08-24T02:15:07.795Z,75.33
2017-08-24T02:17:36.899Z,75.21
2017-08-24T02:20:05.960Z,75.09
2017-08-24T02:22:35.228Z,75.09
2017-08-24T02:25:04.296Z,74.85
2017-08-24T02:27:33.378Z,74.73
2017-08-24T02:30:02.445Z,74.71
2017-08-24T02:32:32.392Z,74.79
2017-08-24T02:35:01.471Z,74.92
2017-08-24T02:37:30.531Z,74.96
2017-08-24T02:39:59.574Z,75.17
2017-08-24T02:42:28.691Z,75.09
2017-08-24T02:44:58.176Z,75.20
2017-08-24T02:47:27.244Z,75.62
2017-08-24T02:49:56.324Z,75.91
2017-08-24T02:52:25.531Z,76.05
2017-08-24T02:54:54.623Z,75.65
2017-08-24T02:57:23.685Z,76.10
2017-08-24T02:59:52.757Z,76.48
2017-08-24T03:02:22.624Z,76.66
2017-08-24T03:04:51.673Z,76.66
2017-08-24T03:07:20.727Z,76.66
2017-08-24T03:09:49.793Z,77.08
2017-08-24T03:12:18.846Z,77.32
2017-08-24T03:14:47.913Z,77.47
2017-08-24T03:17:16.983Z,77.96
2017-08-24T03:19:46.073Z,77.87
2017-08-24T03:22:15.932Z,77.89
2017-08-24T03:24:45.821Z,78.03
2017-08-24T03:27:14.927Z,77.94
2017-08-24T03:29:43.975Z,77.98
2017-08-24T03:32:13.053Z,77.81
2017-08-24T03:34:42.161Z,78.08
2017-08-24T03:37:11.382Z,78.05
2017-08-24T03:39:40.456Z,78.33
2017-08-24T03:42:09.532Z,77.99
2017-08-24T03:44:38.613Z,78.39
2017-08-24T03:47:07.679Z,77.82
2017-08-24T03:49:36.791Z,78.23
2017-08-24T03:52:05.827Z,78.04
2017-08-24T03:54:34.897Z,78.02
2017-08-24T03:57:03.975Z,77.83
2017-08-24T03:59:33.072Z,77.63
2017-08-24T04:02:02.518Z,77.84
2017-08-24T04:04:31.554Z,78.07
2017-08-24T04:07:00.639Z,77.91
2017-08-24T04:09:29.700Z,77.96
2017-08-24T04:11:58.791Z,78.37
2017-08-24T04:14:27.849Z,77.91
2017-08-24T04:16:56.923Z,77.78
2017-08-24T04:19:26.018Z,77.76
2017-08-24T04:21:55.063Z,77.66
2017-08-24T04:24:24.887Z,77.44
2017-08-24T04:26:54.722Z,77.45
2017-08-24T04:29:23.784Z,76.68
2017-08-24T04:31:52.871Z,76.23
2017-08-24T04:34:21.933Z,75.16
2017-08-24T04:36:54.104Z,75.02
2017-08-24T04:39:23.175Z,75.11
2017-08-24T04:41:52.264Z,75.47
2017-08-24T04:44:21.319Z,75.39
2017-08-24T04:46:51.185Z,74.92
2017-08-24T04:49:20.246Z,75.08
2017-08-24T04:51:50.060Z,75.13
2017-08-24T04:54:19.145Z,75.24
2017-08-24T04:56:48.210Z,74.96
2017-08-24T04:59:17.302Z,74.97
2017-08-24T05:01:46.369Z,74.95
2017-08-24T05:04:15.580Z,74.95
2017-08-24T05:06:44.674Z,75.11
2017-08-24T05:09:13.735Z,75.47
2017-08-24T05:11:42.820Z,75.72
2017-08-24T05:14:12.637Z,75.80
2017-08-24T05:16:42.483Z,76.35
2017-08-24T05:19:11.535Z,76.39
2017-08-24T05:21:42.904Z,76.85
2017-08-24T05:24:13.004Z,76.76
2017-08-24T05:26:42.056Z,76.91
2017-08-24T05:29:11.292Z,76.87
2017-08-24T05:31:41.282Z,76.62
2017-08-24T05:34:10.685Z,76.76
2017-08-24T05:36:39.765Z,76.58
2017-08-24T05:39:08.879Z,76.47
2017-08-24T05:41:38.153Z,76.38
2017-08-24T05:44:07.196Z,76.37
2017-08-24T05:46:37.035Z,76.57
2017-08-24T05:49:06.207Z,76.61
2017-08-24T05:51:35.307Z,77.18
2017-08-24T05:54:04.441Z,77.04
2017-08-24T05:56:34.240Z,77.02
2017-08-24T05:59:03.356Z,76.77
2017-08-24T06:01:32.402Z,76.72
2017-08-24T06:04:01.484Z,76.81
2017-08-24T06:06:30.531Z,76.71
2017-08-24T06:08:59.587Z,76.54
2017-08-24T06:11:29.435Z,76.29
2017-08-24T06:13:58.494Z,76.67
2017-08-24T06:16:27.573Z,76.65
2017-08-24T06:18:56.646Z,76.64
2017-08-24T06:21:25.713Z,76.27
2017-08-24T06:23:55.052Z,76.33
2017-08-24T06:26:24.176Z,76.54
2017-08-24T06:28:53.272Z,76.10
2017-08-24T06:31:22.336Z,76.14
2017-08-24T06:33:51.629Z,76.33
2017-08-24T06:36:20.706Z,76.16
2017-08-24T06:38:49.764Z,75.90
2017-08-24T06:41:18.836Z,76.13
2017-08-24T06:43:48.013Z,75.83
2017-08-24T06:46:17.092Z,75.74
2017-08-24T06:48:46.180Z,75.72
2017-08-24T06:51:15.243Z,75.18
2017-08-24T06:53:44.329Z,75.23
2017-08-24T06:56:13.381Z,74.90
2017-08-24T06:58:42.466Z,74.54
2017-08-24T07:01:11.556Z,74.22
2017-08-24T07:03:40.623Z,73.79
2017-08-24T07:06:09.694Z,74.22
2017-08-24T07:08:38.797Z,74.11
2017-08-24T07:11:07.923Z,74.17
2017-08-24T07:13:36.993Z,74.32
2017-08-24T07:16:06.820Z,74.70
2017-08-24T07:18:35.883Z,74.15
2017-08-24T07:21:04.972Z,74.09
2017-08-24T07:23:34.047Z,74.55
2017-08-24T07:26:03.137Z,74.76
2017-08-24T07:28:32.183Z,74.72
2017-08-24T07:31:02.983Z,74.37
2017-08-24T07:33:32.830Z,74.41
2017-08-24T07:36:01.940Z,74.51
2017-08-24T07:38:31.016Z,74.77
2017-08-24T07:41:00.102Z,74.52
2017-08-24T07:43:29.158Z,75.07
2017-08-24T07:45:58.229Z,74.50
2017-08-24T07:48:27.309Z,74.26
2017-08-24T07:50:56.455Z,74.36
2017-08-24T07:53:25.552Z,74.35
2017-08-24T07:55:55.420Z,73.93
2017-08-24T07:58:24.470Z,73.48
2017-08-24T08:00:53.575Z,73.38
2017-08-24T08:03:22.623Z,73.28
2017-08-24T08:05:51.693Z,73.29
2017-08-24T08:08:20.856Z,73.37
2017-08-24T08:10:49.956Z,73.29
2017-08-24T08:13:19.037Z,73.01
2017-08-24T08:15:48.152Z,72.69
2017-08-24T08:18:17.221Z,72.12
2017-08-24T08:20:46.291Z,71.39
2017-08-24T08:23:15.371Z,71.71
2017-08-24T08:25:45.291Z,71.85
2017-08-24T08:28:14.442Z,71.81
2017-08-24T08:30:43.658Z,71.48
2017-08-24T08:33:12.720Z,70.38
2017-08-24T08:35:41.794Z,70.70
2017-08-24T08:38:11.612Z,70.67
2017-08-24T08:40:40.672Z,69.40
2017-08-24T08:43:09.899Z,70.33
2017-08-24T08:45:39.697Z,68.52
2017-08-24T08:48:09.039Z,67.98
2017-08-24T08:50:38.090Z,68.00
2017-08-24T08:53:07.496Z,68.01
2017-08-24T08:55:36.589Z,67.36
2017-08-24T08:58:05.677Z,67.58
2017-08-24T09:00:34.768Z,67.67
2017-08-24T09:03:03.864Z,67.75
2017-08-24T09:05:33.711Z,67.08
2017-08-24T09:08:02.828Z,66.96
2017-08-24T09:10:31.888Z,67.58
2017-08-24T09:13:00.967Z,67.62
2017-08-24T09:15:30.033Z,67.60
2017-08-24T09:17:59.109Z,68.16
2017-08-24T09:20:28.185Z,66.95
2017-08-24T09:22:57.269Z,66.02
2017-08-24T09:25:26.332Z,64.68
2017-08-24T09:27:56.161Z,65.96
2017-08-24T09:30:26.000Z,65.35
2017-08-24T09:32:55.084Z,64.92
2017-08-24T09:35:24.156Z,64.84
2017-08-24T09:37:53.221Z,65.01
2017-08-24T09:40:22.423Z,62.93
2017-08-24T09:42:51.500Z,63.10
2017-08-24T09:45:20.576Z,63.75
2017-08-24T09:47:49.648Z,62.10
2017-08-24T09:50:18.699Z,62.25
2017-08-24T09:52:48.131Z,61.31
2017-08-24T09:55:17.156Z,61.05
2017-08-24T09:57:46.247Z,60.82
2017-08-24T10:00:15.304Z,60.60
2017-08-24T10:02:45.254Z,60.83
2017-08-24T10:05:14.734Z,61.87
2017-08-24T10:07:43.853Z,61.05
2017-08-24T10:10:12.940Z,61.62
2017-08-24T10:12:42.032Z,61.09
2017-08-24T10:15:11.260Z,60.77
2017-08-24T10:17:40.321Z,60.69
2017-08-24T10:20:09.433Z,61.32
2017-08-24T10:22:38.493Z,61.46
2017-08-24T10:25:07.583Z,60.83
2017-08-24T10:27:36.649Z,61.06
2017-08-24T10:30:05.743Z,60.98
2017-08-24T10:32:34.786Z,61.64
2017-08-24T10:35:03.850Z,61.65
2017-08-24T10:37:32.918Z,62.88
2017-08-24T10:40:02.004Z,62.80
2017-08-24T10:42:31.669Z,62.83
2017-08-24T10:45:00.726Z,63.20
2017-08-24T10:47:29.874Z,62.50
2017-08-24T10:49:58.926Z,63.30
2017-08-24T10:52:27.996Z,61.46
2017-08-24T10:54:57.059Z,60.52
2017-08-24T10:57:26.160Z,61.30
2017-08-24T10:59:55.207Z,61.77
2017-08-24T11:02:24.278Z,61.12
2017-08-24T11:04:53.364Z,60.54
2017-08-24T11:07:22.430Z,59.81
2017-08-24T11:09:51.496Z,58.83
2017-08-24T11:12:20.832Z,60.27
2017-08-24T11:14:49.903Z,60.57
2017-08-24T11:17:18.951Z,60.92
2017-08-24T11:19:48.029Z,60.30
2017-08-24T11:22:17.116Z,60.66
2017-08-24T11:24:46.209Z,61.15
2017-08-24T11:27:15.432Z,61.15
2017-08-24T11:29:44.511Z,62.65
2017-08-24T11:32:13.611Z,61.87
2017-08-24T11:34:42.688Z,60.85
2017-08-24T11:37:11.715Z,61.73
2017-08-24T11:39:40.815Z,62.94
2017-08-24T11:42:09.865Z,62.67
2017-08-24T11:44:38.936Z,61.94
2017-08-24T11:47:07.992Z,60.95
2017-08-24T11:49:37.056Z,59.98
2017-08-24T11:52:06.152Z,59.67
2017-08-24T11:54:35.221Z,58.99
2017-08-24T11:57:04.714Z,59.67
2017-08-24T11:59:33.923Z,58.44
2017-08-24T12:02:03.032Z,58.43
2017-08-24T12:04:32.085Z,58.49
2017-08-24T12:07:01.169Z,57.90
2017-08-24T12:09:30.247Z,57.71
2017-08-24T12:11:59.300Z,57.46
2017-08-24T12:14:28.364Z,57.31
2017-08-24T12:16:57.464Z,58.46
2017-08-24T12:19:26.505Z,58.09
2017-08-24T12:21:55.591Z,58.70
2017-08-24T12:24:24.661Z,58.15
2017-08-24T12:26:53.735Z,57.35
2017-08-24T12:29:22.825Z,58.49
2017-08-24T12:31:51.885Z,57.89
2017-08-24T12:34:20.976Z,58.25
2017-08-24T12:36:50.489Z,57.43
2017-08-24T12:39:19.545Z,58.66
2017-08-24T12:41:48.597Z,57.59
2017-08-24T12:44:17.667Z,57.33
2017-08-24T12:46:46.873Z,55.64
2017-08-24T12:49:15.952Z,54.68
2017-08-24T12:51:45.041Z,55.37
2017-08-24T12:54:14.119Z,55.88
2017-08-24T12:56:44.178Z,55.99
2017-08-24T12:59:13.238Z,55.31
2017-08-24T13:01:42.979Z,54.64
2017-08-24T13:04:12.049Z,56.47
2017-08-24T13:06:41.117Z,55.81
2017-08-24T13:09:10.200Z,54.70
2017-08-24T13:11:41.044Z,54.21
2017-08-24T13:14:10.433Z,54.31
2017-08-24T13:16:40.268Z,54.51
2017-08-24T13:19:09.350Z,55.57
2017-08-24T13:21:38.424Z,55.23
2017-08-24T13:24:07.787Z,53.24
2017-08-24T13:26:37.980Z,55.09
2017-08-24T13:29:07.308Z,54.49
2017-08-24T13:31:36.355Z,54.36
2017-08-24T13:34:05.542Z,52.76
2017-08-24T13:36:35.359Z,51.57
2017-08-24T13:39:04.537Z,53.23
2017-08-24T13:41:33.620Z,52.91
2017-08-24T13:44:02.682Z,51.82
2017-08-24T13:46:31.774Z,51.38
2017-08-24T13:49:00.858Z,50.41
2017-08-24T13:51:29.924Z,51.57
2017-08-24T13:53:59.335Z,50.72
2017-08-24T13:56:28.387Z,50.33
2017-08-24T13:58:57.431Z,50.82
2017-08-24T14:01:26.615Z,49.72
2017-08-24T14:03:55.695Z,50.97
2017-08-24T14:06:24.739Z,50.87
2017-08-24T14:08:53.832Z,50.25
2017-08-24T14:11:22.901Z,50.53
2017-08-24T14:13:52.007Z,50.93
2017-08-24T14:16:21.086Z,50.31
2017-08-24T14:18:50.161Z,49.58
2017-08-24T14:21:19.230Z,50.28
2017-08-24T14:23:48.339Z,50.22
2017-08-24T14:26:17.423Z,50.02
2017-08-24T14:28:46.496Z,50.39
2017-08-24T14:31:15.625Z,50.26
2017-08-24T14:33:44.684Z,50.78
2017-08-24T14:36:13.780Z,50.38
2017-08-24T14:38:42.840Z,49.71
2017-08-24T14:41:11.904Z,49.53
2017-08-24T14:43:40.985Z,49.52
2017-08-24T14:46:10.060Z,49.59
2017-08-24T14:48:39.091Z,49.81
2017-08-24T14:51:08.227Z,50.45
2017-08-24T14:53:37.305Z,50.31
2017-08-24T14:56:06.445Z,50.76
2017-08-24T14:58:35.513Z,51.06
2017-08-24T15:01:04.561Z,49.89
2017-08-24T15:03:33.620Z,50.17
2017-08-24T15:06:02.691Z,50.45
2017-08-24T15:08:31.743Z,49.82
2017-08-24T15:11:00.789Z,49.53
2017-08-24T15:13:29.853Z,49.39
2017-08-24T15:15:58.919Z,50.16
2017-08-24T15:18:27.973Z,50.12
2017-08-24T15:20:57.045Z,50.56
2017-08-24T15:23:26.088Z,50.50
2017-08-24T15:25:55.156Z,49.65
2017-08-24T15:28:24.992Z,49.59
2017-08-24T15:30:54.250Z,50.28
2017-08-24T15:33:23.349Z,50.28
2017-08-24T15:35:52.395Z,51.53
2017-08-24T15:38:21.447Z,51.20
2017-08-24T15:40:50.522Z,51.11
2017-08-24T15:43:19.571Z,50.80
2017-08-24T15:45:48.700Z,51.10
2017-08-24T15:48:17.744Z,50.62
2017-08-24T15:50:46.905Z,49.82
2017-08-24T15:53:15.963Z,49.62
2017-08-24T15:55:45.017Z,49.62
2017-08-24T15:58:14.100Z,48.54
2017-08-24T16:00:43.168Z,49.30
2017-08-24T16:03:12.653Z,49.54
2017-08-24T16:05:41.725Z,48.84
2017-08-24T16:08:10.797Z,49.92
2017-08-24T16:10:39.868Z,50.32
2017-08-24T16:13:08.944Z,49.55
2017-08-24T16:15:38.028Z,48.85
2017-08-24T16:18:07.099Z,49.31
2017-08-24T16:20:36.177Z,49.71
2017-08-24T16:23:05.257Z,49.54
2017-08-24T16:25:34.412Z,49.67
2017-08-24T16:28:03.500Z,50.43
2017-08-24T16:30:32.544Z,50.14
2017-08-24T16:33:01.611Z,50.18
2017-08-24T16:35:30.663Z,50.02
2017-08-24T16:37:59.792Z,49.95
2017-08-24T16:40:28.851Z,49.83
2017-08-24T16:42:57.950Z,50.11
2017-08-24T16:45:26.971Z,50.44
2017-08-24T16:47:56.094Z,51.13
2017-08-24T16:50:25.164Z,50.98
2017-08-24T16:52:54.246Z,51.08
2017-08-24T16:55:23.284Z,51.17
2017-08-24T16:57:52.372Z,51.20
2017-08-24T17:00:21.432Z,50.78
2017-08-24T17:02:50.488Z,51.59
2017-08-24T17:05:20.984Z,51.67
2017-08-24T17:07:50.033Z,51.81
2017-08-24T17:10:19.116Z,52.01
2017-08-24T17:12:48.184Z,51.73
2017-08-24T17:15:17.458Z,51.71
2017-08-24T17:17:46.533Z,52.06
2017-08-24T17:20:15.597Z,52.05
2017-08-24T17:22:45.344Z,52.92
2017-08-24T17:25:14.437Z,52.80
2017-08-24T17:27:43.509Z,52.76
2017-08-24T17:30:12.624Z,53.01
2017-08-24T17:32:41.634Z,53.08
2017-08-24T17:35:10.877Z,53.18
2017-08-24T17:37:39.916Z,52.78
2017-08-24T17:40:09.041Z,53.01
2017-08-24T17:42:38.097Z,53.11
2017-08-24T17:45:08.332Z,53.23
2017-08-24T17:47:37.424Z,54.15
2017-08-24T17:50:06.511Z,53.45
2017-08-24T17:52:35.583Z,53.32
2017-08-24T17:55:04.658Z,53.66
2017-08-24T17:57:33.715Z,53.90
2017-08-24T18:00:02.821Z,53.74
2017-08-24T18:02:32.532Z,53.99
2017-08-24T18:05:01.613Z,54.02
2017-08-24T18:07:30.692Z,54.29
2017-08-24T18:09:59.768Z,54.43
2017-08-24T18:12:28.841Z,54.28
2017-08-24T18:14:57.911Z,54.38
2017-08-24T18:17:26.984Z,54.72
2017-08-24T18:19:56.033Z,54.71
2017-08-24T18:22:25.099Z,55.07
2017-08-24T18:24:54.180Z,55.09
2017-08-24T18:27:23.219Z,54.99
2017-08-24T18:29:52.296Z,55.21
2017-08-24T18:32:21.375Z,55.43
2017-08-24T18:34:50.435Z,55.54
2017-08-24T18:37:19.583Z,55.88
2017-08-24T18:39:48.675Z,56.40
2017-08-24T18:42:17.720Z,56.90
2017-08-24T18:44:46.789Z,57.59
2017-08-24T18:47:15.983Z,57.92
2017-08-24T18:49:45.041Z,58.07
2017-08-24T18:52:14.128Z,58.43
2017-08-24T18:54:43.177Z,58.96
2017-08-24T18:57:12.280Z,59.26
2017-08-24T18:59:41.360Z,59.48
2017-08-24T19:02:10.481Z,59.71
2017-08-24T19:04:39.554Z,59.76
2017-08-24T19:07:08.641Z,60.05
2017-08-24T19:09:37.697Z,60.08
2017-08-24T19:12:06.748Z,60.01
2017-08-24T19:14:35.832Z,60.66
2017-08-24T19:17:04.868Z,60.79
2017-08-24T19:19:33.936Z,60.70
2017-08-24T19:22:03.023Z,60.97
2017-08-24T19:24:32.104Z,60.97
2017-08-24T19:27:01.166Z,61.27
2017-08-24T19:29:30.295Z,61.68
2017-08-24T19:31:59.401Z,61.33
2017-08-24T19:34:28.439Z,61.76
2017-08-24T19:36:57.512Z,61.49
2017-08-24T19:39:26.578Z,62.07
2017-08-24T19:41:55.639Z,62.36
2017-08-24T19:44:24.711Z,62.34
2017-08-24T19:46:53.783Z,62.19
2017-08-24T19:49:22.840Z,62.30
2017-08-24T19:51:51.912Z,62.44
2017-08-24T19:54:20.982Z,62.22
2017-08-24T19:56:50.033Z,62.67
2017-08-24T19:59:19.098Z,62.39
2017-08-24T20:01:48.137Z,62.55
2017-08-24T20:04:17.225Z,62.84
2017-08-24T20:06:46.287Z,62.99
2017-08-24T20:09:15.353Z,63.10
2017-08-24T20:11:44.420Z,63.19
2017-08-24T20:14:13.475Z,62.93
2017-08-24T20:16:42.541Z,63.13
2017-08-24T20:19:11.916Z,63.42
2017-08-24T20:21:40.962Z,63.55
2017-08-24T20:24:10.072Z,64.13
2017-08-24T20:26:39.142Z,63.77
2017-08-24T20:29:08.228Z,64.08
2017-08-24T20:31:37.284Z,64.18
2017-08-24T20:34:06.350Z,63.80
2017-08-24T20:36:35.630Z,64.22
2017-08-24T20:39:04.731Z,64.01
2017-08-24T20:41:33.824Z,64.40
2017-08-24T20:44:02.907Z,64.37
2017-08-24T20:46:32.172Z,65.10
2017-08-24T20:49:01.265Z,64.64
2017-08-24T20:51:31.871Z,65.08
2017-08-24T20:54:00.932Z,65.55
2017-08-24T20:56:29.992Z,65.85
2017-08-24T20:58:59.067Z,67.16
2017-08-24T21:01:28.140Z,67.17
2017-08-24T21:03:57.395Z,67.53
2017-08-24T21:06:26.468Z,67.72
2017-08-24T21:08:55.528Z,67.71
2017-08-24T21:11:24.619Z,67.29
2017-08-24T21:13:53.670Z,67.89
2017-08-24T21:16:22.754Z,67.95
2017-08-24T21:18:51.803Z,68.62
2017-08-24T21:21:20.856Z,67.98
2017-08-24T21:23:49.933Z,67.90
2017-08-24T21:26:19.003Z,67.84
2017-08-24T21:28:48.102Z,67.90
2017-08-24T21:31:17.155Z,68.09
2017-08-24T21:33:46.235Z,68.66
2017-08-24T21:36:15.315Z,68.85
2017-08-24T21:38:44.396Z,68.77
2017-08-24T21:41:13.486Z,69.13
2017-08-24T21:43:42.557Z,69.76
2017-08-24T21:46:12.196Z,69.10
2017-08-24T21:48:41.240Z,69.39
2017-08-24T21:51:10.311Z,69.10
2017-08-24T21:53:39.370Z,69.01
2017-08-24T21:56:08.484Z,68.81
2017-08-24T21:58:37.524Z,68.74
2017-08-24T22:01:06.624Z,68.91
2017-08-24T22:03:35.672Z,69.52
2017-08-24T22:06:04.754Z,70.16
2017-08-24T22:08:33.840Z,70.14
2017-08-24T22:11:03.083Z,70.57
2017-08-24T22:13:32.137Z,70.40
2017-08-24T22:16:01.208Z,70.41
2017-08-24T22:18:30.265Z,70.01
2017-08-24T22:20:59.714Z,70.30
2017-08-24T22:23:28.748Z,70.11
2017-08-24T22:25:57.928Z,69.72
2017-08-24T22:28:27.036Z,70.20
2017-08-24T22:30:56.136Z,69.86
2017-08-24T22:33:25.160Z,70.45
2017-08-24T22:35:54.221Z,70.55
2017-08-24T22:38:23.292Z,69.92
2017-08-24T22:40:52.709Z,70.27
2017-08-24T22:43:21.744Z,70.18
2017-08-24T22:45:50.840Z,70.18
2017-08-24T22:48:19.891Z,70.76
2017-08-24T22:50:49.106Z,71.34
2017-08-24T22:53:23.772Z,71.72
2017-08-24T22:55:58.313Z,72.07
2017-08-24T22:58:32.974Z,72.42
2017-08-24T23:01:07.560Z,72.63
2017-08-24T23:03:42.225Z,72.97
2017-08-24T23:06:11.283Z,73.36
2017-08-24T23:08:40.626Z,73.37
2017-08-24T23:11:10.656Z,73.50
2017-08-24T23:13:39.705Z,73.51
2017-08-24T23:16:08.754Z,74.09
2017-08-24T23:18:37.828Z,73.98
2017-08-24T23:21:06.912Z,73.73
2017-08-24T23:23:35.972Z,74.02
2017-08-24T23:26:05.106Z,74.25
2017-08-24T23:28:34.137Z,74.24
2017-08-24T23:31:03.234Z,74.36
2017-08-24T23:33:32.306Z,74.48
2017-08-24T23:36:01.369Z,74.58
2017-08-24T23:38:30.480Z,74.63
2017-08-24T23:40:59.508Z,74.65
2017-08-24T23:43:28.594Z,74.68
2017-08-24T23:45:57.639Z,74.72
2017-08-24T23:48:26.726Z,75.19
2017-08-24T23:50:55.775Z,75.20
2017-08-24T23:53:24.849Z,75.20
2017-08-24T23:55:53.911Z,75.31
2017-08-24T23:58:22.976Z,75.32
